createdAt,value
2018-01-16T00:00:23.804Z,98.60
2018-01-16T00:02:51.992Z,98.20
2018-01-16T00:05:19.504Z,98.20
2018-01-16T00:07:46.941Z,98.10
2018-01-16T00:10:14.378Z,97.70
2018-01-16T00:12:41.808Z,98.30
2018-01-16T00:15:09.268Z,98.00
2018-01-16T00:17:37.441Z,98.10
2018-01-16T00:20:05.661Z,99.40
2018-01-16T00:22:40.886Z,99.40
2018-01-16T00:25:08.318Z,99.30
2018-01-16T00:27:35.747Z,99.20
2018-01-16T00:30:03.184Z,98.80
2018-01-16T00:32:30.633Z,98.90
2018-01-16T00:34:58.073Z,98.60
2018-01-16T00:37:25.511Z,98.10
2018-01-16T00:39:52.948Z,98.40
2018-01-16T00:42:21.158Z,97.40
2018-01-16T00:44:49.360Z,97.50
2018-01-16T00:47:16.796Z,97.50
2018-01-16T00:49:44.233Z,97.60
2018-01-16T00:52:11.657Z,98.00
2018-01-16T00:54:39.096Z,97.10
2018-01-16T00:57:06.524Z,97.90
2018-01-16T00:59:34.056Z,97.90
2018-01-16T01:02:01.500Z,98.30
2018-01-16T01:04:29.700Z,98.60
2018-01-16T01:06:57.138Z,98.60
2018-01-16T01:09:25.315Z,98.90
2018-01-16T01:11:53.514Z,98.70
2018-01-16T01:14:20.953Z,98.60
2018-01-16T01:16:48.384Z,98.50
2018-01-16T01:19:15.825Z,98.30
2018-01-16T01:21:43.266Z,97.60
2018-01-16T01:24:10.697Z,97.30
2018-01-16T01:26:38.128Z,97.40
2018-01-16T01:29:06.334Z,97.30
2018-01-16T01:31:33.761Z,97.30
2018-01-16T01:34:01.967Z,97.30
2018-01-16T01:36:29.388Z,97.30
2018-01-16T01:38:57.599Z,96.40
2018-01-16T01:41:25.016Z,96.40
2018-01-16T01:43:53.212Z,96.70
2018-01-16T01:46:20.644Z,96.70
2018-01-16T01:48:48.847Z,95.50
2018-01-16T01:51:16.280Z,95.40
2018-01-16T01:53:44.480Z,95.10
2018-01-16T01:56:11.932Z,95.10
2018-01-16T01:58:39.392Z,94.70
2018-01-16T02:01:06.824Z,94.20
2018-01-16T02:03:35.020Z,94.00
2018-01-16T02:06:02.469Z,94.00
2018-01-16T02:08:30.659Z,95.30
2018-01-16T02:10:58.103Z,95.30
2018-01-16T02:13:26.296Z,95.10
2018-01-16T02:15:53.724Z,95.00
2018-01-16T02:18:21.912Z,95.40
2018-01-16T02:20:50.122Z,96.10
2018-01-16T02:23:17.541Z,96.00
2018-01-16T02:25:45.741Z,95.40
2018-01-16T02:28:13.172Z,95.30
2018-01-16T02:30:41.379Z,95.40
2018-01-16T02:33:08.796Z,95.40
2018-01-16T02:35:37.009Z,94.60
2018-01-16T02:38:04.464Z,94.60
2018-01-16T02:40:32.748Z,94.90
2018-01-16T02:43:00.185Z,95.20
2018-01-16T02:45:27.634Z,94.80
2018-01-16T02:47:55.834Z,95.00
2018-01-16T02:50:23.281Z,95.00
2018-01-16T02:52:50.741Z,95.00
2018-01-16T02:55:18.206Z,95.50
2018-01-16T02:57:46.256Z,96.40
2018-01-16T03:00:13.702Z,96.20
2018-01-16T03:02:41.902Z,96.10
2018-01-16T03:05:09.332Z,96.10
2018-01-16T03:07:37.538Z,95.10
2018-01-16T03:10:04.972Z,95.10
2018-01-16T03:12:33.176Z,94.40
2018-01-16T03:15:00.612Z,94.40
2018-01-16T03:17:28.042Z,94.10
2018-01-16T03:19:55.476Z,94.30
2018-01-16T03:22:22.908Z,94.50
2018-01-16T03:24:50.347Z,96.00
2018-01-16T03:27:17.776Z,96.00
2018-01-16T03:29:46.005Z,96.70
2018-01-16T03:32:14.209Z,96.30
2018-01-16T03:34:41.657Z,96.40
2018-01-16T03:37:09.144Z,95.50
2018-01-16T03:39:37.458Z,97.00
2018-01-16T03:42:05.671Z,97.40
2018-01-16T03:44:33.102Z,97.30
2018-01-16T03:47:00.532Z,96.80
2018-01-16T03:49:27.956Z,96.20
2018-01-16T03:51:55.404Z,95.90
2018-01-16T03:54:22.846Z,95.70
2018-01-16T03:56:50.281Z,94.90
2018-01-16T03:59:17.738Z,94.50
2018-01-16T04:01:45.180Z,94.60
2018-01-16T04:04:12.644Z,95.40
2018-01-16T04:06:40.848Z,96.00
2018-01-16T04:09:08.272Z,96.00
2018-01-16T04:11:35.729Z,95.90
2018-01-16T04:14:03.177Z,95.70
2018-01-16T04:16:31.383Z,95.10
2018-01-16T04:18:58.829Z,95.10
2018-01-16T04:21:26.265Z,95.00
2018-01-16T04:23:54.453Z,95.90
2018-01-16T04:26:21.893Z,95.90
2018-01-16T04:28:50.152Z,95.50
2018-01-16T04:31:17.611Z,95.50
2018-01-16T04:33:45.038Z,95.00
2018-01-16T04:36:12.481Z,95.00
2018-01-16T04:38:39.932Z,95.30
2018-01-16T04:41:07.368Z,96.50
2018-01-16T04:43:34.788Z,97.00
2018-01-16T04:46:02.249Z,96.70
2018-01-16T04:48:29.672Z,96.60
2018-01-16T04:50:57.117Z,97.70
2018-01-16T04:53:24.572Z,97.80
2018-01-16T04:55:51.995Z,97.50
2018-01-16T04:58:19.815Z,97.60
2018-01-16T05:00:47.246Z,97.60
2018-01-16T05:03:14.693Z,97.00
2018-01-16T05:05:42.140Z,96.60
2018-01-16T05:08:10.340Z,97.00
2018-01-16T05:10:37.785Z,97.00
2018-01-16T05:13:05.239Z,97.30
2018-01-16T05:15:33.421Z,97.20
2018-01-16T05:18:00.860Z,97.10
2018-01-16T05:20:29.065Z,97.20
2018-01-16T05:22:56.496Z,97.10
2018-01-16T05:25:24.686Z,97.00
2018-01-16T05:27:52.167Z,97.00
2018-01-16T05:30:19.844Z,96.80
2018-01-16T05:32:47.291Z,96.50
2018-01-16T05:35:14.737Z,96.20
2018-01-16T05:37:42.168Z,96.30
2018-01-16T05:40:09.771Z,96.20
2018-01-16T05:42:37.184Z,95.50
2018-01-16T05:45:04.625Z,95.20
2018-01-16T05:47:32.838Z,95.60
2018-01-16T05:50:00.276Z,95.60
2018-01-16T05:52:27.712Z,95.90
2018-01-16T05:54:55.924Z,95.30
2018-01-16T05:57:23.386Z,95.20
2018-01-16T05:59:50.819Z,96.40
2018-01-16T06:02:18.244Z,96.80
2018-01-16T06:04:45.676Z,96.20
2018-01-16T06:07:13.112Z,96.70
2018-01-16T06:09:40.532Z,96.60
2018-01-16T06:12:08.796Z,96.70
2018-01-16T06:14:36.165Z,96.70
2018-01-16T06:17:04.372Z,97.10
2018-01-16T06:19:31.809Z,97.00
2018-01-16T06:21:59.255Z,97.40
2018-01-16T06:24:27.445Z,97.80
2018-01-16T06:26:54.896Z,97.80
2018-01-16T06:29:23.088Z,98.10
2018-01-16T06:31:50.533Z,98.10
2018-01-16T06:34:17.956Z,98.20
2018-01-16T06:36:45.388Z,98.10
2018-01-16T06:39:12.831Z,98.30
2018-01-16T06:41:40.250Z,97.80
2018-01-16T06:44:08.476Z,97.30
2018-01-16T06:46:35.901Z,97.20
2018-01-16T06:49:03.555Z,97.90
2018-01-16T06:51:31.735Z,97.70
2018-01-16T06:53:59.229Z,97.70
2018-01-16T06:56:26.660Z,97.40
2018-01-16T06:58:54.096Z,96.90
2018-01-16T07:01:22.284Z,98.00
2018-01-16T07:03:49.708Z,98.00
2018-01-16T07:06:17.133Z,97.80
2018-01-16T07:08:44.562Z,97.40
2018-01-16T07:11:11.981Z,97.50
2018-01-16T07:13:39.440Z,97.70
2018-01-16T07:16:07.628Z,97.10
2018-01-16T07:18:35.833Z,97.10
2018-01-16T07:21:03.281Z,97.10
2018-01-16T07:23:30.712Z,97.90
2018-01-16T07:25:58.917Z,97.40
2018-01-16T07:28:26.565Z,97.30
2018-01-16T07:30:55.064Z,98.00
2018-01-16T07:33:23.240Z,98.20
2018-01-16T07:35:50.689Z,98.20
2018-01-16T07:38:18.132Z,97.60
2018-01-16T07:40:46.321Z,96.80
2018-01-16T07:43:13.747Z,96.80
2018-01-16T07:45:41.180Z,97.30
2018-01-16T07:48:08.634Z,97.40
2018-01-16T07:50:36.046Z,96.90
2018-01-16T07:53:03.485Z,96.80
2018-01-16T07:55:31.676Z,96.90
2018-01-16T07:57:59.108Z,96.90
2018-01-16T08:00:26.532Z,97.00
2018-01-16T08:02:54.737Z,96.80
2018-01-16T08:05:22.168Z,96.80
2018-01-16T08:07:49.600Z,96.50
2018-01-16T08:10:17.408Z,97.60
2018-01-16T08:12:44.823Z,96.80
2018-01-16T08:15:12.235Z,96.70
2018-01-16T08:17:40.450Z,97.10
2018-01-16T08:20:08.041Z,97.10
2018-01-16T08:22:35.469Z,97.30
2018-01-16T08:25:02.975Z,98.20
2018-01-16T08:27:30.400Z,97.60
2018-01-16T08:29:57.827Z,97.10
2018-01-16T08:32:25.256Z,97.20
2018-01-16T08:34:52.688Z,97.90
2018-01-16T08:37:20.141Z,97.80
2018-01-16T08:39:47.551Z,97.10
2018-01-16T08:42:14.977Z,97.40
2018-01-16T08:44:42.414Z,96.80
2018-01-16T08:47:09.841Z,96.90
2018-01-16T08:49:37.272Z,97.10
2018-01-16T08:52:04.717Z,96.80
2018-01-16T08:54:32.163Z,96.80
2018-01-16T08:56:59.604Z,97.00
2018-01-16T08:59:27.036Z,96.70
2018-01-16T09:01:54.460Z,97.20
2018-01-16T09:04:21.900Z,95.70
2018-01-16T09:06:50.097Z,94.90
2018-01-16T09:09:17.536Z,95.30
2018-01-16T09:11:45.736Z,94.90
2018-01-16T09:14:13.168Z,94.80
2018-01-16T09:16:41.361Z,95.80
2018-01-16T09:19:08.795Z,95.80
2018-01-16T09:21:36.985Z,96.40
2018-01-16T09:24:05.209Z,96.70
2018-01-16T09:26:32.653Z,96.30
2018-01-16T09:29:00.173Z,95.80
2018-01-16T09:31:28.409Z,94.70
2018-01-16T09:33:55.849Z,94.60
2018-01-16T09:36:23.305Z,95.20
2018-01-16T09:38:50.741Z,95.10
2018-01-16T09:41:18.172Z,94.80
2018-01-16T09:43:46.371Z,95.40
2018-01-16T09:46:13.800Z,95.40
2018-01-16T09:48:42.012Z,94.70
2018-01-16T09:51:09.576Z,94.60
2018-01-16T09:53:37.064Z,94.60
2018-01-16T09:56:04.607Z,96.50
2018-01-16T09:58:32.047Z,96.10
2018-01-16T10:00:59.578Z,96.00
2018-01-16T10:03:27.775Z,97.20
2018-01-16T10:05:55.201Z,97.00
2018-01-16T10:08:23.446Z,99.00
2018-01-16T10:10:50.877Z,99.00
2018-01-16T10:13:18.312Z,99.70
2018-01-16T10:15:45.749Z,99.80
2018-01-16T10:18:13.944Z,99.80
2018-01-16T10:20:41.371Z,99.40
2018-01-16T10:23:09.659Z,99.00
2018-01-16T10:25:37.935Z,98.10
2018-01-16T10:28:05.324Z,98.10
2018-01-16T10:30:32.756Z,97.90
2018-01-16T10:33:00.952Z,98.00
2018-01-16T10:35:28.378Z,98.00
2018-01-16T10:37:56.573Z,97.00
2018-01-16T10:40:24.012Z,97.00
2018-01-16T10:42:52.212Z,97.40
2018-01-16T10:45:20.182Z,97.40
2018-01-16T10:47:47.608Z,97.50
2018-01-16T10:50:15.038Z,97.60
2018-01-16T10:52:42.470Z,97.40
2018-01-16T10:55:09.904Z,96.80
2018-01-16T10:57:37.341Z,98.00
2018-01-16T11:00:05.540Z,98.00
2018-01-16T11:02:32.965Z,97.90
2018-01-16T11:05:00.401Z,97.80
2018-01-16T11:07:27.829Z,98.10
2018-01-16T11:09:55.273Z,98.80
2018-01-16T11:12:22.708Z,98.30
2018-01-16T11:14:50.921Z,96.90
2018-01-16T11:17:18.920Z,96.90
2018-01-16T11:19:46.563Z,97.40
2018-01-16T11:22:13.989Z,97.00
2018-01-16T11:24:41.425Z,96.30
2018-01-16T11:27:09.651Z,95.80
2018-01-16T11:29:37.816Z,95.20
2018-01-16T11:32:05.241Z,95.20
2018-01-16T11:34:33.448Z,91.70
2018-01-16T11:37:00.876Z,91.60
2018-01-16T11:39:29.081Z,90.10
2018-01-16T11:41:56.520Z,90.10
2018-01-16T11:44:24.013Z,93.00
2018-01-16T11:46:51.412Z,92.90
2018-01-16T11:49:20.527Z,93.30
2018-01-16T11:51:47.971Z,93.30
2018-01-16T11:54:16.174Z,90.20
2018-01-16T11:56:43.609Z,90.20
2018-01-16T11:59:11.837Z,90.90
2018-01-16T12:01:40.036Z,91.60
2018-01-16T12:04:07.512Z,92.00
2018-01-16T12:06:34.964Z,91.70
2018-01-16T12:09:03.168Z,91.90
2018-01-16T12:11:30.600Z,91.90
2018-01-16T12:13:58.363Z,91.70
2018-01-16T12:16:25.824Z,91.50
2018-01-16T12:18:54.045Z,90.50
2018-01-16T12:21:21.473Z,90.60
2018-01-16T12:23:48.965Z,90.00
2018-01-16T12:26:16.397Z,90.80
2018-01-16T12:28:43.822Z,89.10
2018-01-16T12:31:12.033Z,87.60
2018-01-16T12:33:39.456Z,87.50
2018-01-16T12:36:07.655Z,90.80
2018-01-16T12:38:35.077Z,90.70
2018-01-16T12:41:02.520Z,90.30
2018-01-16T12:43:30.029Z,87.20
2018-01-16T12:45:57.468Z,87.90
2018-01-16T12:48:25.681Z,86.30
2018-01-16T12:50:53.111Z,86.30
2018-01-16T12:53:21.314Z,81.10
2018-01-16T12:55:48.758Z,81.00
2018-01-16T12:58:16.181Z,83.00
2018-01-16T13:00:43.612Z,82.90
2018-01-16T13:03:11.057Z,86.40
2018-01-16T13:05:38.500Z,90.40
2018-01-16T13:08:05.929Z,88.20
2018-01-16T13:10:33.385Z,91.10
2018-01-16T13:13:00.829Z,89.40
2018-01-16T13:15:29.020Z,91.20
2018-01-16T13:17:57.281Z,91.90
2018-01-16T13:20:24.697Z,91.90
2018-01-16T13:22:52.116Z,92.30
2018-01-16T13:25:19.551Z,91.40
2018-01-16T13:27:47.766Z,92.20
2018-01-16T13:30:15.191Z,92.10
2018-01-16T13:32:43.392Z,90.90
2018-01-16T13:35:10.832Z,91.20
2018-01-16T13:37:38.288Z,92.10
2018-01-16T13:40:05.717Z,91.80
2018-01-16T13:42:33.156Z,91.40
2018-01-16T13:45:00.614Z,92.20
2018-01-16T13:47:28.029Z,92.30
2018-01-16T13:49:55.465Z,91.70
2018-01-16T13:52:23.669Z,90.50
2018-01-16T13:54:51.091Z,90.40
2018-01-16T13:57:19.304Z,90.20
2018-01-16T13:59:46.741Z,89.80
2018-01-16T14:02:14.179Z,87.10
2018-01-16T14:04:42.368Z,89.10
2018-01-16T14:07:09.823Z,89.10
2018-01-16T14:09:38.012Z,91.20
2018-01-16T14:12:05.455Z,91.20
2018-01-16T14:14:33.681Z,94.60
2018-01-16T14:17:01.115Z,94.60
2018-01-16T14:19:28.624Z,95.00
2018-01-16T14:21:56.001Z,95.90
2018-01-16T14:24:24.236Z,96.40
2018-01-16T14:26:51.678Z,96.30
2018-01-16T14:29:19.134Z,95.90
2018-01-16T14:31:46.597Z,95.70
2018-01-16T14:34:14.038Z,96.40
2018-01-16T14:36:41.493Z,96.60
2018-01-16T14:39:08.925Z,96.60
2018-01-16T14:41:37.124Z,95.50
2018-01-16T14:44:04.554Z,95.50
2018-01-16T14:46:32.772Z,96.00
2018-01-16T14:49:00.205Z,95.90
2018-01-16T14:51:27.635Z,96.10
2018-01-16T14:53:55.832Z,95.70
2018-01-16T14:56:23.272Z,95.70
2018-01-16T14:58:51.460Z,95.30
2018-01-16T15:01:18.935Z,94.90
2018-01-16T15:03:46.354Z,95.20
2018-01-16T15:06:14.560Z,95.00
2018-01-16T15:08:41.984Z,95.00
2018-01-16T15:11:10.202Z,95.60
2018-01-16T15:13:37.619Z,95.60
2018-01-16T15:16:05.825Z,94.90
2018-01-16T15:18:33.262Z,94.90
2018-01-16T15:21:01.474Z,94.10
2018-01-16T15:23:28.910Z,94.00
2018-01-16T15:25:56.352Z,94.60
2018-01-16T15:28:24.544Z,94.50
2018-01-16T15:30:52.001Z,94.40
2018-01-16T15:33:20.177Z,95.60
2018-01-16T15:35:47.616Z,95.50
2018-01-16T15:38:15.833Z,95.70
2018-01-16T15:40:43.285Z,95.70
2018-01-16T15:43:10.738Z,95.70
2018-01-16T15:45:38.163Z,95.60
2018-01-16T15:48:06.415Z,95.30
2018-01-16T15:50:33.846Z,95.70
2018-01-16T15:53:01.286Z,94.90
2018-01-16T15:55:28.742Z,94.90
2018-01-16T15:57:56.153Z,95.10
2018-01-16T16:00:24.350Z,96.30
2018-01-16T16:02:52.549Z,96.00
2018-01-16T16:05:19.968Z,96.00
2018-01-16T16:07:48.176Z,95.60
2018-01-16T16:10:15.620Z,95.50
2018-01-16T16:12:43.809Z,95.50
2018-01-16T16:15:11.236Z,95.50
2018-01-16T16:17:39.443Z,96.20
2018-01-16T16:20:06.917Z,96.10
2018-01-16T16:22:34.357Z,95.70
2018-01-16T16:25:01.797Z,95.40
2018-01-16T16:27:30.018Z,95.60
2018-01-16T16:29:57.440Z,95.60
2018-01-16T16:32:25.473Z,95.80
2018-01-16T16:34:52.904Z,95.10
2018-01-16T16:37:20.336Z,94.70
2018-01-16T16:39:47.788Z,94.90
2018-01-16T16:42:15.246Z,94.40
2018-01-16T16:44:42.672Z,94.70
2018-01-16T16:47:10.914Z,94.70
2018-01-16T16:49:38.348Z,94.70
2018-01-16T16:52:05.772Z,94.10
2018-01-16T16:54:33.220Z,93.50
2018-01-16T16:57:00.633Z,93.10
2018-01-16T16:59:28.081Z,93.70
2018-01-16T17:01:55.523Z,93.20
2018-01-16T17:04:22.952Z,93.30
2018-01-16T17:06:51.159Z,93.20
2018-01-16T17:09:18.599Z,93.30
2018-01-16T17:11:46.044Z,93.20
2018-01-16T17:14:14.292Z,93.30
2018-01-16T17:16:41.721Z,93.30
2018-01-16T17:19:09.932Z,93.70
2018-01-16T17:21:37.346Z,93.20
2018-01-16T17:24:04.810Z,94.00
2018-01-16T17:26:32.236Z,94.10
2018-01-16T17:28:59.669Z,94.50
2018-01-16T17:31:27.865Z,93.80
2018-01-16T17:33:55.304Z,93.80
2018-01-16T17:36:23.503Z,94.40
2018-01-16T17:38:50.948Z,94.30
2018-01-16T17:41:19.136Z,93.60
2018-01-16T17:43:46.624Z,93.60
2018-01-16T17:46:14.773Z,93.70
2018-01-16T17:48:42.245Z,93.70
2018-01-16T17:51:09.685Z,93.60
2018-01-16T17:53:37.130Z,94.10
2018-01-16T17:56:05.329Z,93.50
2018-01-16T17:58:32.772Z,93.50
2018-01-16T18:01:00.209Z,93.90
2018-01-16T18:03:28.420Z,94.70
2018-01-16T18:05:55.916Z,94.70
2018-01-16T18:08:23.360Z,94.50
2018-01-16T18:10:50.802Z,94.70
2018-01-16T18:13:18.245Z,94.60
2018-01-16T18:15:45.669Z,94.70
2018-01-16T18:18:13.872Z,94.40
2018-01-16T18:20:41.313Z,94.40
2018-01-16T18:23:08.744Z,94.80
2018-01-16T18:25:36.219Z,95.30
2018-01-16T18:28:03.616Z,95.40
2018-01-16T18:30:31.053Z,95.30
2018-01-16T18:32:58.489Z,95.30
2018-01-16T18:35:26.711Z,96.00
2018-01-16T18:37:54.142Z,96.00
2018-01-16T18:40:21.639Z,95.60
2018-01-16T18:42:49.113Z,95.80
2018-01-16T18:45:16.563Z,95.40
2018-01-16T18:47:43.994Z,96.00
2018-01-16T18:50:11.420Z,96.20
2018-01-16T18:52:39.617Z,96.70
2018-01-16T18:55:07.066Z,96.70
2018-01-16T18:57:34.494Z,96.00
2018-01-16T19:00:02.705Z,95.50
2018-01-16T19:02:30.188Z,95.50
2018-01-16T19:04:57.601Z,95.20
2018-01-16T19:07:25.792Z,94.60
2018-01-16T19:09:53.235Z,94.60
2018-01-16T19:12:22.357Z,94.90
2018-01-16T19:14:49.799Z,94.90
2018-01-16T19:17:17.229Z,95.30
2018-01-16T19:19:45.428Z,95.90
2018-01-16T19:22:12.863Z,95.60
2018-01-16T19:24:41.065Z,95.00
2018-01-16T19:27:08.496Z,95.00
2018-01-16T19:29:36.704Z,95.20
2018-01-16T19:32:04.133Z,95.20
2018-01-16T19:34:32.340Z,95.00
2018-01-16T19:36:59.780Z,95.00
2018-01-16T19:39:28.792Z,95.00
2018-01-16T19:41:56.218Z,95.00
2018-01-16T19:44:24.430Z,94.70
2018-01-16T19:46:51.866Z,94.70
2018-01-16T19:49:19.300Z,95.20
2018-01-16T19:51:47.498Z,94.80
2018-01-16T19:54:14.958Z,94.80
2018-01-16T19:56:42.384Z,94.60
2018-01-16T19:59:10.595Z,93.90
2018-01-16T20:01:38.047Z,93.90
2018-01-16T20:04:05.509Z,94.50
2018-01-16T20:06:32.932Z,94.20
2018-01-16T20:09:00.400Z,94.50
2018-01-16T20:11:28.620Z,94.00
2018-01-16T20:13:56.076Z,94.00
2018-01-16T20:16:23.502Z,94.10
2018-01-16T20:18:50.929Z,93.40
2018-01-16T20:21:18.353Z,93.60
2018-01-16T20:23:45.843Z,93.90
2018-01-16T20:26:13.285Z,93.50
2018-01-16T20:28:40.715Z,93.40
2018-01-16T20:31:08.168Z,93.40
2018-01-16T20:33:35.604Z,93.60
2018-01-16T20:36:03.804Z,93.80
2018-01-16T20:38:31.232Z,93.70
2018-01-16T20:40:59.538Z,93.60
2018-01-16T20:43:26.957Z,93.60
2018-01-16T20:45:55.149Z,93.60
2018-01-16T20:48:22.596Z,93.60
2018-01-16T20:50:50.802Z,93.10
2018-01-16T20:53:18.242Z,93.10
2018-01-16T20:55:45.669Z,93.40
2018-01-16T20:58:13.877Z,93.80
2018-01-16T21:00:41.308Z,93.80
2018-01-16T21:03:09.570Z,93.40
2018-01-16T21:05:37.017Z,93.30
2018-01-16T21:08:04.457Z,93.30
2018-01-16T21:10:31.884Z,93.70
2018-01-16T21:12:59.309Z,93.40
2018-01-16T21:15:27.513Z,93.90
2018-01-16T21:17:54.937Z,93.90
2018-01-16T21:20:23.145Z,93.90
2018-01-16T21:22:50.605Z,93.60
2018-01-16T21:25:19.043Z,93.60
2018-01-16T21:27:46.456Z,93.30
2018-01-16T21:30:13.935Z,93.30
2018-01-16T21:32:41.353Z,93.50
2018-01-16T21:35:08.799Z,93.10
2018-01-16T21:37:37.013Z,93.30
2018-01-16T21:40:04.447Z,93.30
2018-01-16T21:42:31.878Z,93.00
2018-01-16T21:45:00.101Z,93.30
2018-01-16T21:47:27.520Z,93.20
2018-01-16T21:49:55.713Z,93.40
2018-01-16T21:52:23.204Z,93.40
2018-01-16T21:54:51.363Z,93.10
2018-01-16T21:57:18.794Z,93.10
2018-01-16T21:59:46.223Z,92.80
2018-01-16T22:02:13.693Z,93.10
2018-01-16T22:04:41.945Z,93.60
2018-01-16T22:07:09.319Z,93.50
2018-01-16T22:09:37.515Z,93.40
2018-01-16T22:12:04.948Z,93.30
2018-01-16T22:14:33.137Z,93.70
2018-01-16T22:17:01.376Z,93.80
2018-01-16T22:19:29.575Z,93.90
2018-01-16T22:21:57.020Z,93.80
2018-01-16T22:24:24.429Z,93.90
2018-01-16T22:26:51.905Z,93.90
2018-01-16T22:29:19.354Z,94.30
2018-01-16T22:31:46.805Z,93.70
2018-01-16T22:34:14.227Z,93.70
2018-01-16T22:36:42.442Z,94.10
2018-01-16T22:39:10.084Z,94.10
2018-01-16T22:41:37.524Z,93.90
2018-01-16T22:44:05.750Z,93.20
2018-01-16T22:46:33.189Z,93.10
2018-01-16T22:49:00.670Z,93.40
2018-01-16T22:51:28.108Z,93.70
2018-01-16T22:53:55.541Z,93.40
2018-01-16T22:56:22.986Z,93.10
2018-01-16T22:58:51.268Z,93.50
2018-01-16T23:01:19.468Z,92.90
2018-01-16T23:03:46.938Z,92.80
2018-01-16T23:06:14.340Z,93.10
2018-01-16T23:08:42.543Z,93.30
2018-01-16T23:11:09.997Z,93.30
2018-01-16T23:13:38.209Z,93.30
2018-01-16T23:16:05.650Z,93.30
2018-01-16T23:18:33.095Z,93.80
2018-01-16T23:21:00.530Z,93.80
2018-01-16T23:23:28.728Z,93.40
2018-01-16T23:25:56.164Z,93.40
2018-01-16T23:28:24.360Z,93.00
2018-01-16T23:30:51.817Z,93.00
2018-01-16T23:33:19.236Z,93.10
2018-01-16T23:35:46.694Z,93.60
2018-01-16T23:38:14.137Z,93.60
2018-01-16T23:40:41.577Z,93.90
2018-01-16T23:43:09.000Z,93.90
2018-01-16T23:45:36.438Z,93.60
2018-01-16T23:48:04.668Z,93.50
2018-01-16T23:50:32.125Z,93.50
2018-01-16T23:52:59.561Z,93.40
2018-01-16T23:55:27.000Z,93.60
2018-01-16T23:57:54.436Z,93.70
